Time;durP1;ratioP1;P1;durP2;ratioP2;P2;SDS_P1;SDS_P2;PMS_P1;PMS_P2;Temp;Humidity;BMP_temperature;BMP_pressure;BME280_temperature;BME280_humidity;BME280_pressure;Samples;Min_cycle;Max_cycle;Signal;HPM_P1;HPM_P2
2022/07/03 00:00:39;;;;;;;8.52;7.72;;;15.30;99.90;;;;;;4680885;30;20517;-84
2022/07/03 00:03:05;;;;;;;6.70;6.03;;;15.30;99.90;;;;;;4694520;30;20089;-83
2022/07/03 00:05:30;;;;;;;6.70;6.20;;;15.20;99.90;;;;;;4671496;30;20051;-83
2022/07/03 00:07:57;;;;;;;6.75;6.15;;;15.20;99.90;;;;;;4677482;30;20038;-83
2022/07/03 00:10:22;;;;;;;6.65;6.05;;;15.20;99.90;;;;;;4681154;30;20045;-83
2022/07/03 00:12:48;;;;;;;8.20;7.38;;;15.10;99.90;;;;;;4680965;30;20050;-83
2022/07/03 00:15:14;;;;;;;7.60;7.00;;;15.10;99.90;;;;;;4681084;30;20495;-83
2022/07/03 00:17:39;;;;;;;6.80;6.30;;;15.20;99.90;;;;;;4680663;30;20042;-84
2022/07/03 00:20:05;;;;;;;6.85;6.25;;;15.00;99.90;;;;;;4681363;30;20050;-83
2022/07/03 00:22:33;;;;;;;7.00;6.38;;;15.00;99.90;;;;;;4680640;30;20057;-83
2022/07/03 00:25:05;;;;;;;6.90;6.20;;;14.90;99.90;;;;;;4694755;30;20148;-83
2022/07/03 00:27:35;;;;;;;7.05;6.35;;;14.90;99.90;;;;;;4666705;30;20510;-84
2022/07/03 00:30:03;;;;;;;9.48;8.68;;;14.90;99.90;;;;;;4705105;30;20050;-83
2022/07/03 00:32:29;;;;;;;9.55;8.70;;;14.90;99.90;;;;;;4681177;30;20049;-84
2022/07/03 00:34:56;;;;;;;8.93;8.15;;;14.80;99.90;;;;;;4681465;30;20057;-83
2022/07/03 00:37:23;;;;;;;8.60;7.85;;;14.80;99.90;;;;;;4709597;30;20054;-83
2022/07/03 00:39:49;;;;;;;7.90;7.30;;;14.70;99.90;;;;;;4673592;30;20054;-83
2022/07/03 00:42:15;;;;;;;6.65;5.95;;;14.60;99.90;;;;;;4678609;30;20148;-82
2022/07/03 00:44:48;;;;;;;6.22;5.63;;;14.60;99.90;;;;;;4703334;30;20132;-84
2022/07/03 00:47:16;;;;;;;9.13;8.43;;;14.50;99.90;;;;;;4686671;30;20046;-83
2022/07/03 00:49:46;;;;;;;8.45;7.72;;;14.50;99.90;;;;;;4673109;30;20093;-83
2022/07/03 00:52:14;;;;;;;7.82;7.15;;;14.40;99.90;;;;;;4668022;30;20042;-83
2022/07/03 00:54:44;;;;;;;8.18;7.38;;;14.40;99.90;;;;;;4679852;30;20129;-83
2022/07/03 00:57:15;;;;;;;8.48;7.75;;;14.30;99.90;;;;;;4699765;30;20105;-84
2022/07/03 00:59:42;;;;;;;8.40;7.45;;;14.20;99.90;;;;;;4674474;30;20132;-82
2022/07/03 01:02:12;;;;;;;9.23;8.43;;;14.10;99.90;;;;;;4681393;30;20242;-83
2022/07/03 01:04:51;;;;;;;10.23;9.32;;;14.10;99.90;;;;;;4679815;30;20056;-82
2022/07/03 01:07:40;;;;;;;10.70;9.75;;;14.00;99.90;;;;;;4701268;30;20132;-83
2022/07/03 01:10:18;;;;;;;9.80;8.90;;;14.00;99.90;;;;;;4684830;30;20081;-82
2022/07/03 01:13:10;;;;;;;9.18;8.43;;;14.00;99.90;;;;;;4670531;30;20046;-83
2022/07/03 01:15:49;;;;;;;9.18;8.35;;;13.90;99.90;;;;;;4678633;30;20419;-83
2022/07/03 01:19:03;;;;;;;7.88;7.28;;;13.90;99.90;;;;;;4669596;30;20046;-83
2022/07/03 01:21:40;;;;;;;9.60;8.90;;;13.80;99.90;;;;;;4657326;30;20144;-83
2022/07/03 01:24:23;;;;;;;10.88;9.77;;;13.80;99.90;;;;;;4669727;30;20049;-83
2022/07/03 01:26:55;;;;;;;10.20;9.40;;;13.80;99.90;;;;;;4670236;30;20128;-83
2022/07/03 01:29:32;;;;;;;11.30;10.27;;;13.70;99.90;;;;;;4684221;30;20188;-82
2022/07/03 01:31:59;;;;;;;10.85;9.90;;;13.70;99.90;;;;;;4670104;30;20052;-82
2022/07/03 01:34:33;;;;;;;11.93;10.73;;;13.60;99.90;;;;;;4684229;30;20053;-82
2022/07/03 01:37:02;;;;;;;9.35;8.55;;;13.70;99.90;;;;;;4697903;30;20091;-82
2022/07/03 01:39:29;;;;;;;10.07;9.38;;;13.70;99.90;;;;;;4669366;30;20096;-83
2022/07/03 01:41:58;;;;;;;8.85;8.05;;;13.70;99.90;;;;;;4675679;30;20046;-82
2022/07/03 01:44:26;;;;;;;10.60;9.70;;;13.50;99.90;;;;;;4684174;30;20050;-83
2022/07/03 01:46:56;;;;;;;10.07;9.15;;;13.60;99.90;;;;;;4682068;30;20054;-83
2022/07/03 01:49:25;;;;;;;9.35;8.65;;;13.40;99.90;;;;;;4697345;30;20120;-82
2022/07/03 01:51:53;;;;;;;12.52;11.43;;;13.50;99.90;;;;;;4683945;30;20046;-82
2022/07/03 01:54:20;;;;;;;10.90;10.00;;;13.40;99.90;;;;;;4684310;30;20050;-82
2022/07/03 01:56:47;;;;;;;9.93;9.13;;;13.40;99.90;;;;;;4673480;30;20487;-82
2022/07/03 01:59:13;;;;;;;11.48;10.50;;;13.30;99.90;;;;;;4676252;30;20042;-82
2022/07/03 02:02:08;;;;;;;10.20;9.40;;;13.30;99.90;;;;;;4681721;30;20056;-82
2022/07/03 02:04:50;;;;;;;11.23;10.27;;;13.30;99.90;;;;;;4663729;30;20387;-84
2022/07/03 02:07:34;;;;;;;12.10;11.10;;;13.20;99.90;;;;;;4668843;30;20125;-83
2022/07/03 02:10:07;;;;;;;12.35;11.35;;;13.20;99.90;;;;;;4684573;30;20046;-83
2022/07/03 02:12:40;;;;;;;14.05;12.90;;;13.20;99.90;;;;;;4683335;30;20073;-83
2022/07/03 02:15:08;;;;;;;13.57;12.57;;;13.20;99.90;;;;;;4710218;30;20045;-84
2022/07/03 02:17:42;;;;;;;12.10;11.13;;;13.10;99.90;;;;;;4695475;30;20048;-83
2022/07/03 02:20:09;;;;;;;12.57;11.63;;;13.10;99.90;;;;;;4683374;30;20057;-83
2022/07/03 02:22:36;;;;;;;13.18;12.07;;;13.10;99.90;;;;;;4683751;30;20129;-82
2022/07/03 02:25:08;;;;;;;12.20;11.30;;;13.10;99.90;;;;;;4669857;30;20463;-82
2022/07/03 02:27:47;;;;;;;13.45;12.35;;;13.10;99.90;;;;;;4683542;30;20521;-82
2022/07/03 02:30:13;;;;;;;13.82;12.77;;;13.00;99.90;;;;;;4684535;30;20042;-83
2022/07/03 02:32:50;;;;;;;13.98;12.70;;;13.00;99.90;;;;;;4683420;30;20050;-82
2022/07/03 02:35:31;;;;;;;14.30;13.10;;;13.00;99.90;;;;;;4682755;30;20034;-82
2022/07/03 02:38:15;;;;;;;16.15;14.85;;;12.90;99.90;;;;;;4683918;30;20053;-83
2022/07/03 02:40:57;;;;;;;19.30;17.67;;;12.90;99.90;;;;;;4683715;30;20057;-82
2022/07/03 02:43:29;;;;;;;17.05;15.65;;;12.90;99.90;;;;;;4684162;30;20050;-83
2022/07/03 02:46:00;;;;;;;16.30;15.02;;;12.90;99.90;;;;;;4676866;30;20126;-82
2022/07/03 02:48:39;;;;;;;16.25;14.90;;;12.80;99.90;;;;;;4698233;30;20057;-82
2022/07/03 02:51:13;;;;;;;15.40;14.10;;;12.80;99.90;;;;;;4668946;30;20132;-82
2022/07/03 02:53:44;;;;;;;14.43;13.18;;;12.90;99.90;;;;;;4683275;30;20053;-83
2022/07/03 02:56:34;;;;;;;12.38;11.38;;;12.70;99.90;;;;;;4667502;30;20045;-83
2022/07/03 02:59:08;;;;;;;15.18;13.88;;;12.70;99.90;;;;;;4669272;30;20113;-82
2022/07/03 03:01:38;;;;;;;13.93;12.82;;;12.70;99.90;;;;;;4695709;30;20065;-84
2022/07/03 03:04:40;;;;;;;13.63;12.52;;;12.60;99.90;;;;;;4710941;30;20057;-83
2022/07/03 03:07:13;;;;;;;15.13;13.93;;;12.60;99.90;;;;;;4674410;30;20091;-83
2022/07/03 03:09:45;;;;;;;15.88;14.63;;;12.50;99.90;;;;;;4682538;30;20061;-83
2022/07/03 03:12:12;;;;;;;15.02;13.93;;;12.50;99.90;;;;;;4682502;30;20042;-82
2022/07/03 03:14:40;;;;;;;18.63;17.02;;;12.30;99.90;;;;;;4661905;30;20384;-82
2022/07/03 03:17:08;;;;;;;16.13;14.82;;;12.40;99.90;;;;;;4669118;30;20050;-82
2022/07/03 03:19:43;;;;;;;17.33;16.00;;;12.40;99.90;;;;;;4682916;30;20058;-82
2022/07/03 03:22:24;;;;;;;17.88;16.38;;;12.40;99.90;;;;;;4682197;30;20062;-82
2022/07/03 03:24:50;;;;;;;17.38;16.08;;;12.40;99.90;;;;;;4683148;30;20081;-84
2022/07/03 03:27:17;;;;;;;23.48;21.33;;;12.50;99.90;;;;;;4682232;30;20076;-82
2022/07/03 03:29:43;;;;;;;19.05;17.48;;;12.40;99.90;;;;;;4683086;30;20387;-82
2022/07/03 03:32:10;;;;;;;21.77;19.85;;;12.40;99.90;;;;;;4667970;30;20048;-82
2022/07/03 03:34:36;;;;;;;23.27;21.33;;;12.40;99.90;;;;;;4668759;30;20038;-82
2022/07/03 03:37:02;;;;;;;20.08;18.48;;;12.50;99.90;;;;;;4661589;30;20050;-82
2022/07/03 03:39:28;;;;;;;23.17;21.25;;;12.50;99.90;;;;;;4668712;30;20054;-82
2022/07/03 03:41:54;;;;;;;23.27;21.35;;;12.60;99.90;;;;;;4676063;30;20049;-82
2022/07/03 03:44:20;;;;;;;23.00;21.00;;;12.60;99.90;;;;;;4711967;30;20651;-82
2022/07/03 03:46:45;;;;;;;22.15;20.35;;;12.50;99.90;;;;;;4670168;30;20128;-83
2022/07/03 03:49:11;;;;;;;21.83;20.02;;;12.60;99.90;;;;;;4675369;30;20046;-83
2022/07/03 03:51:38;;;;;;;21.08;19.35;;;12.70;99.90;;;;;;4677639;30;20042;-83
2022/07/03 03:54:04;;;;;;;21.05;19.42;;;12.80;99.90;;;;;;4696404;30;20046;-83
2022/07/03 03:56:30;;;;;;;19.92;18.42;;;12.80;99.90;;;;;;4667954;30;20046;-83
2022/07/03 03:58:56;;;;;;;18.65;17.13;;;12.90;99.90;;;;;;4675099;30;20046;-82
2022/07/03 04:01:21;;;;;;;17.85;16.35;;;12.90;99.90;;;;;;4695812;30;20145;-83
2022/07/03 04:03:47;;;;;;;19.67;18.08;;;12.90;99.90;;;;;;4681810;30;20050;-82
2022/07/03 04:06:13;;;;;;;22.42;20.58;;;13.10;99.90;;;;;;4666676;30;20135;-84
2022/07/03 04:08:38;;;;;;;21.90;20.13;;;13.00;99.90;;;;;;4666952;30;20053;-82
2022/07/03 04:11:04;;;;;;;18.52;17.00;;;13.10;99.90;;;;;;4680452;30;20049;-82
2022/07/03 04:13:30;;;;;;;22.40;20.63;;;13.10;99.90;;;;;;4667508;30;20048;-82
2022/07/03 04:15:56;;;;;;;21.88;20.02;;;13.20;99.90;;;;;;4709835;30;20038;-83
2022/07/03 04:18:22;;;;;;;19.33;17.65;;;13.10;99.90;;;;;;4667416;30;20046;-83
2022/07/03 04:20:48;;;;;;;22.77;20.75;;;13.20;99.90;;;;;;4667027;30;20046;-82
2022/07/03 04:23:14;;;;;;;20.27;18.67;;;13.20;99.90;;;;;;4667685;30;20050;-82
2022/07/03 04:25:39;;;;;;;22.67;20.67;;;13.10;99.90;;;;;;4681688;30;20050;-83
2022/07/03 04:28:05;;;;;;;18.38;16.98;;;13.20;99.90;;;;;;4667277;30;20101;-83
2022/07/03 04:30:30;;;;;;;23.48;21.38;;;13.30;99.90;;;;;;4667165;30;20048;-82
2022/07/03 04:32:56;;;;;;;25.30;23.25;;;13.20;99.90;;;;;;4674874;30;20050;-82
2022/07/03 04:35:22;;;;;;;20.02;18.42;;;13.20;99.90;;;;;;4694472;30;20061;-83
2022/07/03 04:37:47;;;;;;;22.25;20.45;;;13.30;99.90;;;;;;4680959;30;20041;-84
2022/07/03 04:40:13;;;;;;;21.73;20.02;;;13.30;99.90;;;;;;4680894;30;20088;-82
2022/07/03 04:42:39;;;;;;;20.70;18.98;;;13.40;99.90;;;;;;4666111;30;20167;-82
2022/07/03 04:45:06;;;;;;;21.08;19.27;;;13.40;99.90;;;;;;4668705;30;20049;-83
2022/07/03 04:47:31;;;;;;;22.92;20.85;;;13.30;99.90;;;;;;4707837;30;20052;-82
2022/07/03 04:49:57;;;;;;;24.40;22.40;;;13.30;99.90;;;;;;4684629;30;20452;-83
2022/07/03 04:52:23;;;;;;;19.88;18.20;;;13.30;99.90;;;;;;4699590;30;20411;-83
2022/07/03 04:54:49;;;;;;;21.88;20.00;;;13.40;99.90;;;;;;4670484;30;20042;-82
2022/07/03 04:57:14;;;;;;;19.85;18.23;;;13.40;99.90;;;;;;4684283;30;20053;-83
2022/07/03 04:59:40;;;;;;;23.90;22.05;;;13.50;99.90;;;;;;4685629;30;20050;-83
2022/07/03 05:02:06;;;;;;;26.75;24.55;;;13.60;99.90;;;;;;4685705;30;20050;-83
2022/07/03 05:04:31;;;;;;;23.33;21.35;;;13.90;99.90;;;;;;4685158;30;20526;-83
2022/07/03 05:06:57;;;;;;;19.33;17.63;;;14.00;99.90;;;;;;4669759;30;20050;-83
2022/07/03 05:09:24;;;;;;;22.33;20.33;;;14.30;99.90;;;;;;4681233;30;20089;-83
2022/07/03 05:11:49;;;;;;;19.55;17.95;;;14.60;99.90;;;;;;4706739;30;20073;-83
2022/07/03 05:14:15;;;;;;;19.33;17.83;;;14.90;99.90;;;;;;4684478;30;20521;-83
2022/07/03 05:16:40;;;;;;;15.68;14.48;;;15.10;99.90;;;;;;4683689;30;20128;-83
2022/07/03 05:19:06;;;;;;;15.15;13.85;;;15.30;99.90;;;;;;4669608;30;20046;-83
2022/07/03 05:21:32;;;;;;;14.43;13.23;;;15.50;99.90;;;;;;4684329;30;20046;-83
2022/07/03 05:23:58;;;;;;;14.73;13.52;;;15.70;99.90;;;;;;4684513;30;20050;-83
2022/07/03 05:26:24;;;;;;;14.10;12.90;;;16.00;99.90;;;;;;4682323;30;20049;-83
2022/07/03 05:28:50;;;;;;;14.05;12.80;;;16.20;99.90;;;;;;4679446;30;20080;-83
2022/07/03 05:31:16;;;;;;;13.00;11.80;;;16.40;99.90;;;;;;4697449;30;20089;-83
2022/07/03 05:33:42;;;;;;;12.23;11.07;;;16.50;99.90;;;;;;4669597;30;20069;-84
2022/07/03 05:36:07;;;;;;;12.15;11.02;;;16.70;99.90;;;;;;4683578;30;20054;-83
2022/07/03 05:41:18;;;;;;;9.45;8.73;;;17.10;99.90;;;;;;4682889;30;20053;-83
2022/07/03 05:43:44;;;;;;;9.32;8.50;;;17.40;99.90;;;;;;4683779;30;20046;-84
2022/07/03 05:46:10;;;;;;;9.13;8.23;;;17.60;99.90;;;;;;4676903;30;20054;-83
2022/07/03 05:48:35;;;;;;;8.95;8.15;;;17.60;99.90;;;;;;4677741;30;20141;-84
2022/07/03 05:51:02;;;;;;;9.15;8.30;;;17.80;99.90;;;;;;4683094;30;20045;-83
2022/07/03 05:53:27;;;;;;;8.88;7.55;;;17.90;99.90;;;;;;4683569;30;20049;-83
2022/07/03 05:55:53;;;;;;;7.68;6.90;;;18.00;99.90;;;;;;4668145;30;20038;-83
2022/07/03 05:58:19;;;;;;;9.52;7.07;;;18.10;99.90;;;;;;4698363;30;20053;-83
2022/07/03 06:00:45;;;;;;;7.72;6.85;;;18.10;99.90;;;;;;4679353;30;20422;-83
2022/07/03 06:03:10;;;;;;;7.72;7.03;;;17.90;99.90;;;;;;4688829;30;20050;-84
2022/07/03 06:05:36;;;;;;;8.20;7.50;;;17.90;99.90;;;;;;4691702;30;20136;-83
2022/07/03 06:08:02;;;;;;;7.55;6.85;;;17.90;99.90;;;;;;4696667;30;20092;-83
2022/07/03 06:10:29;;;;;;;8.52;7.65;;;17.80;99.90;;;;;;4668786;30;20129;-83
2022/07/03 06:12:55;;;;;;;7.10;6.40;;;17.80;99.90;;;;;;4683268;30;20046;-84
2022/07/03 06:15:21;;;;;;;6.95;6.13;;;17.80;99.90;;;;;;4683112;30;20403;-84
2022/07/03 06:17:46;;;;;;;7.90;5.90;;;17.80;99.90;;;;;;4682821;30;20050;-84
2022/07/03 06:20:13;;;;;;;7.20;6.60;;;17.80;99.90;;;;;;4695751;30;20081;-83
2022/07/03 06:22:40;;;;;;;5.38;4.82;;;17.80;99.90;;;;;;4696740;30;20054;-83
2022/07/03 06:25:06;;;;;;;5.85;5.25;;;17.90;99.90;;;;;;4697585;30;20050;-83
2022/07/03 06:27:31;;;;;;;5.70;5.07;;;18.00;99.90;;;;;;4682555;30;20096;-83
2022/07/03 06:29:57;;;;;;;5.00;4.60;;;18.10;99.90;;;;;;4683631;30;20046;-83
2022/07/03 06:32:23;;;;;;;5.90;4.30;;;18.10;99.90;;;;;;4675235;30;20050;-83
2022/07/03 06:34:48;;;;;;;5.25;4.53;;;18.10;99.90;;;;;;4669248;30;20046;-84
2022/07/03 06:37:14;;;;;;;7.40;4.07;;;18.10;99.90;;;;;;4670535;30;20050;-83
2022/07/03 06:39:40;;;;;;;7.45;4.80;;;18.10;99.90;;;;;;4706702;30;20104;-84
2022/07/03 06:42:05;;;;;;;5.82;4.70;;;18.10;99.90;;;;;;4683278;30;20514;-83
2022/07/03 06:44:31;;;;;;;5.72;5.18;;;18.10;99.90;;;;;;4681679;30;20042;-84
2022/07/03 06:46:57;;;;;;;5.95;4.57;;;18.00;99.90;;;;;;4695238;30;20054;-84
2022/07/03 06:49:23;;;;;;;5.68;4.63;;;18.00;99.90;;;;;;4696938;30;20053;-84
2022/07/03 06:51:49;;;;;;;6.72;5.07;;;18.00;99.90;;;;;;4681992;30;20346;-83
2022/07/03 06:54:15;;;;;;;6.13;5.00;;;18.00;99.90;;;;;;4689161;30;20511;-84
2022/07/03 06:56:42;;;;;;;5.72;4.47;;;18.10;99.90;;;;;;4676200;30;20050;-84
2022/07/03 06:59:08;;;;;;;4.30;3.70;;;18.20;99.90;;;;;;4682503;30;20095;-83
2022/07/03 07:01:34;;;;;;;4.93;3.40;;;18.40;99.90;;;;;;4681851;30;20037;-84
2022/07/03 07:03:59;;;;;;;3.55;2.72;;;18.60;99.90;;;;;;4679857;30;20046;-83
2022/07/03 07:06:25;;;;;;;3.80;2.42;;;18.70;99.90;;;;;;4682488;30;20057;-84
2022/07/03 07:08:50;;;;;;;3.40;2.00;;;18.90;99.90;;;;;;4681761;30;20045;-83
2022/07/03 07:11:16;;;;;;;3.42;1.70;;;19.10;99.90;;;;;;4680745;30;20050;-83
2022/07/03 07:13:42;;;;;;;4.18;1.80;;;19.10;99.90;;;;;;4694623;30;20050;-87
2022/07/03 07:16:07;;;;;;;2.42;1.60;;;19.10;99.90;;;;;;4696212;30;20487;-84
2022/07/03 07:18:34;;;;;;;3.88;1.90;;;19.20;99.90;;;;;;4666058;30;20451;-84
2022/07/03 07:21:00;;;;;;;4.15;2.00;;;19.20;99.90;;;;;;4680966;30;20054;-84
2022/07/03 07:23:25;;;;;;;2.00;1.67;;;19.30;99.90;;;;;;4677201;30;20100;-84
2022/07/03 07:25:51;;;;;;;2.45;1.40;;;19.40;99.90;;;;;;4681858;30;20038;-84
2022/07/03 07:28:17;;;;;;;2.70;1.35;;;19.50;99.90;;;;;;4666883;30;20104;-85
2022/07/03 07:30:42;;;;;;;2.50;1.40;;;19.50;99.90;;;;;;4682580;30;20048;-85
2022/07/03 07:33:08;;;;;;;3.33;1.30;;;19.60;99.90;;;;;;4694373;30;20065;-85
2022/07/03 07:35:34;;;;;;;3.63;1.70;;;19.70;99.90;;;;;;4682112;30;20046;-85
2022/07/03 07:38:00;;;;;;;2.90;1.50;;;19.70;99.90;;;;;;4681039;30;20585;-84
2022/07/03 07:40:26;;;;;;;5.00;1.70;;;19.80;99.90;;;;;;4681864;30;20415;-85
2022/07/03 07:42:51;;;;;;;3.85;1.67;;;20.00;99.90;;;;;;4682544;30;20054;-85
2022/07/03 07:45:19;;;;;;;3.17;1.52;;;20.10;99.90;;;;;;4681782;30;20042;-84
2022/07/03 07:47:45;;;;;;;4.00;1.40;;;20.10;99.90;;;;;;4680656;30;20404;-86
2022/07/03 07:50:11;;;;;;;2.63;1.42;;;20.00;99.90;;;;;;4680567;30;20128;-85
2022/07/03 07:52:37;;;;;;;3.88;1.30;;;20.00;99.90;;;;;;4680916;30;20081;-85
2022/07/03 07:55:03;;;;;;;3.97;2.00;;;19.80;99.90;;;;;;4680898;30;20050;-84
2022/07/03 07:57:39;;;;;;;4.47;1.33;;;19.70;99.90;;;;;;4680899;30;20561;-85
2022/07/03 08:00:11;;;;;;;4.85;1.70;;;19.70;99.90;;;;;;4681134;30;20454;-85
2022/07/03 08:05:37;;;;;;;3.03;1.45;;;20.20;99.90;;;;;;4680537;30;20064;-85
2022/07/03 08:08:07;;;;;;;4.90;1.58;;;21.20;99.90;;;;;;4668371;30;20057;-86
2022/07/03 08:10:59;;;;;;;3.35;1.55;;;22.20;99.90;;;;;;4679881;30;20093;-85
2022/07/03 08:13:26;;;;;;;3.47;1.50;;;22.50;99.90;;;;;;4678432;30;20061;-85
2022/07/03 08:15:52;;;;;;;4.88;1.65;;;22.80;99.90;;;;;;4672224;30;20072;-84
2022/07/03 08:18:18;;;;;;;1.83;1.30;;;23.40;99.90;;;;;;4694170;30;20494;-83
2022/07/03 08:20:43;;;;;;;3.33;1.10;;;23.90;99.90;;;;;;4680061;30;20423;-83
2022/07/03 08:23:09;;;;;;;4.53;1.30;;;24.20;99.90;;;;;;4706015;30;20061;-84
2022/07/03 08:25:35;;;;;;;2.47;1.40;;;24.50;99.90;;;;;;4680469;30;20050;-84
2022/07/03 08:28:00;;;;;;;2.95;0.90;;;24.60;99.90;;;;;;4680433;30;20423;-84
2022/07/03 08:30:26;;;;;;;3.20;1.02;;;24.60;99.90;;;;;;4680561;30;20046;-84
2022/07/03 08:32:55;;;;;;;3.72;1.05;;;24.90;99.90;;;;;;4680466;30;20430;-85
2022/07/03 08:35:20;;;;;;;2.60;0.80;;;25.30;99.90;;;;;;4661572;30;20124;-84
2022/07/03 08:37:47;;;;;;;2.17;1.10;;;25.80;99.90;;;;;;4675739;30;20133;-85
2022/07/03 08:40:14;;;;;;;3.25;0.90;;;26.20;99.90;;;;;;4671138;30;20054;-84
2022/07/03 08:42:55;;;;;;;3.47;1.00;;;26.60;99.90;;;;;;4702842;30;20073;-85
2022/07/03 08:45:22;;;;;;;3.05;0.90;;;27.00;99.90;;;;;;4680461;30;20049;-84
2022/07/03 08:47:49;;;;;;;5.90;1.00;;;27.40;99.90;;;;;;4693959;30;20050;-85
2022/07/03 08:50:18;;;;;;;3.22;0.68;;;27.70;99.90;;;;;;4681219;30;20477;-86
2022/07/03 08:52:45;;;;;;;3.05;1.00;;;27.90;99.90;;;;;;4679229;30;20111;-83
2022/07/03 08:55:13;;;;;;;3.10;0.88;;;28.10;99.90;;;;;;4680543;30;20105;-84
2022/07/03 08:57:42;;;;;;;4.85;1.20;;;28.20;99.90;;;;;;4670014;30;20081;-84
2022/07/03 09:00:13;;;;;;;2.65;0.80;;;28.40;99.90;;;;;;4700616;30;20042;-84
2022/07/03 09:02:44;;;;;;;2.92;0.80;;;28.30;99.90;;;;;;4680518;30;20415;-84
2022/07/03 09:05:15;;;;;;;2.47;0.70;;;27.70;99.80;;;;;;4679931;30;20050;-84
2022/07/03 09:07:42;;;;;;;2.22;0.80;;;27.50;99.90;;;;;;4679549;30;20403;-83
2022/07/03 09:10:11;;;;;;;3.80;0.88;;;27.50;99.70;;;;;;4680597;30;20423;-84
2022/07/03 09:12:36;;;;;;;1.92;0.90;;;27.30;99.10;;;;;;4680397;30;20050;-83
2022/07/03 09:15:04;;;;;;;3.08;0.90;;;26.90;99.90;;;;;;4679462;30;20054;-84
2022/07/03 09:17:30;;;;;;;3.50;1.33;;;26.70;99.90;;;;;;4665952;30;20050;-84
2022/07/03 09:20:05;;;;;;;2.72;0.85;;;26.60;99.90;;;;;;4679876;30;20052;-83
2022/07/03 09:22:32;;;;;;;2.17;0.73;;;26.80;99.70;;;;;;4665859;30;20050;-84
2022/07/03 09:25:06;;;;;;;1.42;0.60;;;27.10;97.50;;;;;;4679460;30;20046;-84
2022/07/03 09:27:32;;;;;;;3.63;0.80;;;27.50;90.90;;;;;;4702627;30;20520;-84
2022/07/03 09:30:06;;;;;;;3.25;0.90;;;27.70;91.50;;;;;;4681563;30;20124;-84
2022/07/03 09:32:34;;;;;;;3.58;0.90;;;28.00;90.60;;;;;;4691026;30;20483;-83
2022/07/03 09:35:21;;;;;;;3.53;0.70;;;28.00;89.90;;;;;;4668888;30;20073;-84
2022/07/03 09:37:51;;;;;;;1.75;0.80;;;28.10;88.70;;;;;;4668822;30;20073;-84
2022/07/03 09:40:18;;;;;;;1.65;0.80;;;28.00;88.00;;;;;;4682594;30;20053;-83
2022/07/03 09:43:03;;;;;;;2.40;0.88;;;28.10;85.50;;;;;;4668676;30;20057;-84
2022/07/03 09:45:54;;;;;;;2.30;0.63;;;28.20;84.00;;;;;;4683051;30;20081;-84
2022/07/03 09:48:30;;;;;;;2.35;0.68;;;28.30;84.80;;;;;;4668304;30;20763;-86
2022/07/03 09:51:23;;;;;;;3.10;0.75;;;28.50;81.20;;;;;;4710870;30;20038;-84
2022/07/03 09:53:51;;;;;;;2.50;0.70;;;28.60;73.00;;;;;;4675894;30;20402;-85
2022/07/03 09:56:23;;;;;;;1.90;0.60;;;28.50;78.90;;;;;;4651681;30;20047;-84
2022/07/03 09:59:10;;;;;;;2.33;0.65;;;28.50;79.80;;;;;;4655568;30;20083;-84
2022/07/03 10:01:37;;;;;;;2.75;0.68;;;28.70;78.40;;;;;;4678252;30;20057;-84
2022/07/03 10:04:13;;;;;;;3.10;0.80;;;28.60;78.20;;;;;;4668947;30;20050;-84
2022/07/03 10:06:50;;;;;;;1.85;0.68;;;28.60;75.20;;;;;;4682704;30;20053;-85
2022/07/03 10:09:19;;;;;;;1.98;0.65;;;28.70;73.00;;;;;;4681501;30;20054;-84
2022/07/03 10:11:45;;;;;;;2.38;0.80;;;28.70;73.70;;;;;;4667825;30;20068;-84
2022/07/03 10:14:15;;;;;;;4.07;0.90;;;28.80;74.80;;;;;;4673803;30;20133;-83
2022/07/03 10:16:42;;;;;;;3.63;0.80;;;28.90;73.70;;;;;;4677157;30;20161;-84
2022/07/03 10:19:16;;;;;;;1.35;0.60;;;28.90;74.50;;;;;;4681797;30;20077;-85
2022/07/03 10:21:43;;;;;;;1.48;0.50;;;28.90;73.30;;;;;;4696776;30;20050;-84
2022/07/03 10:24:10;;;;;;;1.73;0.60;;;28.60;72.80;;;;;;4681222;30;20060;-84
2022/07/03 10:26:36;;;;;;;1.95;0.60;;;28.40;73.60;;;;;;4662295;30;20112;-85
2022/07/03 10:29:02;;;;;;;2.22;0.60;;;28.40;75.60;;;;;;4681996;30;20503;-84
2022/07/03 10:31:28;;;;;;;1.65;0.70;;;28.40;72.80;;;;;;4682503;30;20037;-84
2022/07/03 10:33:55;;;;;;;1.05;0.63;;;28.50;72.90;;;;;;4681956;30;20034;-84
2022/07/03 10:36:22;;;;;;;2.20;0.70;;;28.70;71.90;;;;;;4695832;30;20042;-84
2022/07/03 10:38:48;;;;;;;1.92;0.63;;;28.80;71.70;;;;;;4681985;30;20046;-83
2022/07/03 10:47:37;;;;;;;1.80;0.55;;;29.20;69.20;;;;;;4681301;30;20092;-83
2022/07/03 10:50:08;;;;;;;1.70;0.73;;;29.30;68.70;;;;;;4693684;30;20046;-84
2022/07/03 10:52:33;;;;;;;2.22;0.77;;;29.30;64.90;;;;;;4682400;30;20454;-85
2022/07/03 10:55:01;;;;;;;1.65;0.52;;;29.40;66.80;;;;;;4681936;30;20135;-84
2022/07/03 10:57:26;;;;;;;2.75;0.70;;;29.50;67.40;;;;;;4681368;30;20077;-84
2022/07/03 10:59:52;;;;;;;2.72;0.85;;;29.50;68.10;;;;;;4695302;30;20088;-84
2022/07/03 11:02:18;;;;;;;2.00;0.60;;;29.50;67.40;;;;;;4710787;30;20050;-84
2022/07/03 11:05:02;;;;;;;1.13;0.68;;;29.30;67.50;;;;;;4667464;30;20502;-84
2022/07/03 11:07:50;;;;;;;2.42;0.80;;;29.20;68.30;;;;;;4667076;30;20060;-84
2022/07/03 11:10:16;;;;;;;3.33;1.35;;;29.00;69.50;;;;;;4710457;30;20057;-84
2022/07/03 11:13:17;;;;;;;3.83;1.27;;;29.00;68.30;;;;;;4666960;30;20381;-83
2022/07/03 11:15:46;;;;;;;3.35;1.70;;;29.10;67.90;;;;;;4664795;30;20076;-84
2022/07/03 11:18:15;;;;;;;3.58;1.00;;;28.90;67.60;;;;;;4664251;30;20050;-84
2022/07/03 11:20:43;;;;;;;3.25;1.00;;;28.60;68.40;;;;;;4678735;30;20143;-84
2022/07/03 11:23:27;;;;;;;5.10;1.10;;;28.40;71.00;;;;;;4666530;30;20061;-84
2022/07/03 11:26:01;;;;;;;3.58;1.13;;;28.20;69.30;;;;;;4681391;30;20056;-84
2022/07/03 11:28:33;;;;;;;3.30;0.90;;;28.00;69.80;;;;;;4681316;30;20105;-85
2022/07/03 11:31:16;;;;;;;3.07;0.90;;;28.10;70.70;;;;;;4666932;30;20049;-83
2022/07/03 11:33:42;;;;;;;3.15;1.10;;;28.20;72.20;;;;;;4681314;30;20073;-84
2022/07/03 11:36:17;;;;;;;3.22;1.17;;;28.40;72.50;;;;;;4681438;30;20100;-83
2022/07/03 11:38:44;;;;;;;5.35;1.42;;;28.70;72.20;;;;;;4681414;30;20050;-84
2022/07/03 11:41:11;;;;;;;3.92;1.10;;;28.80;72.90;;;;;;4680994;30;20064;-85
2022/07/03 11:43:37;;;;;;;4.82;0.93;;;29.00;71.70;;;;;;4681098;30;20046;-84
2022/07/03 11:46:05;;;;;;;3.47;0.93;;;29.10;69.00;;;;;;4681001;30;20052;-85
2022/07/03 11:48:31;;;;;;;4.90;0.93;;;29.20;68.80;;;;;;4680948;30;20073;-85
2022/07/03 11:51:03;;;;;;;3.35;1.25;;;29.20;67.30;;;;;;4680500;30;20767;-84
2022/07/03 11:53:29;;;;;;;3.78;0.90;;;28.90;66.50;;;;;;4688037;30;20494;-85
2022/07/03 11:55:57;;;;;;;2.60;1.33;;;28.50;68.10;;;;;;4666919;30;20053;-84
2022/07/03 11:58:23;;;;;;;4.53;1.23;;;28.00;69.20;;;;;;4680767;30;20057;-84
2022/07/03 12:00:53;;;;;;;4.07;1.20;;;27.40;69.50;;;;;;4680531;30;20537;-84
2022/07/03 12:03:25;;;;;;;3.38;0.80;;;27.00;69.50;;;;;;4708472;30;20057;-84
2022/07/03 12:05:58;;;;;;;3.42;1.00;;;26.50;71.40;;;;;;4681065;30;20200;-83
2022/07/03 12:08:29;;;;;;;;;;;26.10;73.50;;;;;;4666592;30;20133;-83
2022/07/03 12:11:00;;;;;;;4.32;1.20;;;25.70;73.10;;;;;;4680426;30;20316;-83
2022/07/03 12:13:30;;;;;;;4.65;1.30;;;25.40;73.70;;;;;;4709444;30;20053;-83
2022/07/03 12:16:02;;;;;;;3.20;1.70;;;25.10;75.60;;;;;;4680429;30;20451;-83
2022/07/03 12:18:40;;;;;;;3.47;1.42;;;24.90;79.70;;;;;;4680680;30;20411;-83
2022/07/03 12:21:05;;;;;;;3.75;1.42;;;24.90;82.80;;;;;;4665810;30;20045;-82
2022/07/03 12:23:50;;;;;;;3.35;1.00;;;24.80;83.50;;;;;;4679981;30;20041;-83
2022/07/03 12:26:29;;;;;;;3.92;1.10;;;24.80;80.20;;;;;;4694860;30;20065;-83
2022/07/03 12:29:00;;;;;;;5.28;1.20;;;24.80;81.90;;;;;;4680238;30;20050;-83
2022/07/03 12:31:28;;;;;;;4.68;1.15;;;24.90;80.00;;;;;;4679670;30;20045;-83
2022/07/03 12:33:54;;;;;;;3.15;1.02;;;25.20;81.20;;;;;;4688827;30;20398;-82
2022/07/03 12:36:20;;;;;;;3.05;1.00;;;25.60;82.00;;;;;;4680862;30;20046;-83
2022/07/03 12:38:51;;;;;;;5.32;0.95;;;26.10;80.60;;;;;;4680536;30;20522;-83
2022/07/03 12:41:17;;;;;;;3.17;0.90;;;26.60;77.80;;;;;;4680427;30;20430;-82
2022/07/03 12:43:47;;;;;;;4.15;0.90;;;26.90;74.20;;;;;;4681744;30;20037;-83
2022/07/03 12:46:22;;;;;;;2.00;0.88;;;26.90;74.20;;;;;;4679589;30;20054;-83
2022/07/03 12:48:57;;;;;;;3.28;1.05;;;26.90;74.20;;;;;;4699916;30;20418;-82
2022/07/03 12:51:41;;;;;;;3.90;1.10;;;26.70;74.10;;;;;;4678166;30;20139;-83
2022/07/03 12:54:08;;;;;;;4.20;1.02;;;26.50;74.80;;;;;;4688707;30;20137;-83
2022/07/03 12:56:34;;;;;;;3.35;1.10;;;26.30;73.70;;;;;;4706079;30;20045;-83
2022/07/03 12:59:18;;;;;;;1.58;0.82;;;25.90;73.70;;;;;;4679819;30;20630;-83
2022/07/03 13:01:58;;;;;;;2.28;0.90;;;25.60;74.30;;;;;;4708603;30;20440;-86
2022/07/03 13:04:31;;;;;;;4.10;1.05;;;25.10;75.70;;;;;;4681075;30;20057;-83